createdAt,value
2022-10-26T00:04:35.614Z,18.91
2022-10-26T00:09:37.061Z,19.05
2022-10-26T00:14:38.509Z,19.04
2022-10-26T00:19:40.017Z,19.13
2022-10-26T00:24:41.481Z,19.01
2022-10-26T00:29:42.953Z,19.13
2022-10-26T00:34:44.441Z,19.08
2022-10-26T00:39:45.917Z,19.07
2022-10-26T00:44:47.216Z,19.03
2022-10-26T00:49:48.968Z,18.94
2022-10-26T00:54:50.568Z,18.90
2022-10-26T00:59:52.027Z,18.69
2022-10-26T01:04:53.669Z,18.68
2022-10-26T01:09:55.125Z,18.84
2022-10-26T01:14:56.593Z,18.82
2022-10-26T01:20:09.705Z,18.79
2022-10-26T01:25:17.111Z,18.70
2022-10-26T01:30:21.959Z,18.69
2022-10-26T01:35:30.233Z,18.71
2022-10-26T01:40:45.561Z,18.69
2022-10-26T01:45:47.593Z,18.65
2022-10-26T01:50:50.801Z,18.55
2022-10-26T01:55:53.132Z,18.47
2022-10-26T02:01:09.237Z,18.44
2022-10-26T02:06:16.897Z,18.43
2022-10-26T02:11:38.160Z,18.41
2022-10-26T02:16:58.763Z,18.39
2022-10-26T02:22:04.906Z,18.44
2022-10-26T02:27:07.117Z,18.27
2022-10-26T02:32:08.579Z,18.21
2022-10-26T02:37:10.081Z,18.26
2022-10-26T02:42:11.594Z,18.26
2022-10-26T02:47:13.064Z,18.17
2022-10-26T02:52:24.470Z,18.09
2022-10-26T02:57:39.804Z,18.06
2022-10-26T03:02:47.697Z,18.05
2022-10-26T03:07:50.175Z,18.13
2022-10-26T03:12:52.322Z,18.04
2022-10-26T03:17:53.946Z,18.15
2022-10-26T03:22:57.006Z,18.04
2022-10-26T03:27:59.374Z,17.96
2022-10-26T03:33:00.828Z,17.89
2022-10-26T03:38:02.276Z,18.05
2022-10-26T03:43:03.819Z,17.86
2022-10-26T03:48:05.486Z,17.78
2022-10-26T03:53:06.998Z,17.80
2022-10-26T03:58:08.441Z,17.91
2022-10-26T04:03:09.888Z,17.87
2022-10-26T04:08:11.458Z,17.50
2022-10-26T04:13:12.910Z,17.59
2022-10-26T04:18:14.374Z,17.90
2022-10-26T04:23:16.509Z,17.67
2022-10-26T04:28:18.060Z,17.74
2022-10-26T04:33:19.519Z,17.74
2022-10-26T04:38:20.969Z,17.72
2022-10-26T04:43:22.434Z,17.38
2022-10-26T04:53:26.213Z,17.83
2022-10-26T04:58:28.393Z,17.39
2022-10-26T05:03:30.264Z,17.74
2022-10-26T05:08:31.839Z,17.73
2022-10-26T05:13:33.304Z,17.78
2022-10-26T05:18:34.743Z,17.71
2022-10-26T05:23:36.204Z,17.19
2022-10-26T05:28:37.653Z,17.50
2022-10-26T05:33:39.120Z,17.47
2022-10-26T05:38:41.645Z,17.63
2022-10-26T05:43:43.124Z,17.28
2022-10-26T05:48:44.656Z,17.45
2022-10-26T05:53:46.148Z,17.47
2022-10-26T05:58:48.038Z,17.32
2022-10-26T06:03:55.747Z,17.45
2022-10-26T06:08:57.434Z,17.61
2022-10-26T06:14:01.151Z,17.54
2022-10-26T06:19:09.702Z,17.58
2022-10-26T06:24:16.293Z,17.19
2022-10-26T06:29:36.182Z,17.36
2022-10-26T06:34:38.249Z,17.53
2022-10-26T06:39:42.325Z,17.22
2022-10-26T06:44:44.087Z,17.41
2022-10-26T06:50:01.041Z,17.31
2022-10-26T06:55:02.788Z,17.20
2022-10-26T07:00:06.828Z,16.97
2022-10-26T07:05:12.795Z,17.21
2022-10-26T07:10:14.649Z,17.20
2022-10-26T07:15:16.332Z,16.97
2022-10-26T07:20:18.816Z,16.82
2022-10-26T07:25:20.184Z,17.40
2022-10-26T07:30:21.646Z,17.44
2022-10-26T07:35:23.118Z,16.68
2022-10-26T07:40:24.945Z,17.20
2022-10-26T07:45:26.877Z,16.93
2022-10-26T07:50:28.389Z,17.30
2022-10-26T07:55:29.842Z,17.37
2022-10-26T08:00:31.351Z,17.26
2022-10-26T08:05:32.863Z,17.81
2022-10-26T08:10:34.591Z,17.88
2022-10-26T08:15:36.078Z,17.74
2022-10-26T08:20:37.545Z,17.91
2022-10-26T08:25:39.031Z,17.73
2022-10-26T08:30:40.491Z,17.97
2022-10-26T08:35:41.968Z,17.48
2022-10-26T08:40:43.437Z,17.81
2022-10-26T08:45:52.705Z,17.61
2022-10-26T08:51:01.056Z,17.56
2022-10-26T08:56:14.719Z,17.70
2022-10-26T09:01:16.573Z,17.72
2022-10-26T09:06:25.692Z,17.50
2022-10-26T09:11:57.051Z,17.47
2022-10-26T09:17:26.171Z,18.06
2022-10-26T09:22:55.457Z,17.52
2022-10-26T09:27:58.685Z,17.39
2022-10-26T09:33:02.774Z,17.87
2022-10-26T09:38:09.960Z,17.71
2022-10-26T09:43:14.203Z,17.54
2022-10-26T09:48:43.384Z,17.44
2022-10-26T09:53:44.851Z,17.58
2022-10-26T09:58:54.130Z,17.93
2022-10-26T10:04:16.810Z,18.03
2022-10-26T10:09:22.376Z,18.04
2022-10-26T10:14:53.728Z,18.23
2022-10-26T10:19:55.205Z,18.28
2022-10-26T10:25:00.465Z,17.98
2022-10-26T10:30:23.904Z,18.38
2022-10-26T10:35:29.576Z,18.70
2022-10-26T10:40:31.468Z,18.65
2022-10-26T10:45:33.037Z,18.90
2022-10-26T10:50:34.788Z,19.23
2022-10-26T10:55:36.306Z,19.34
2022-10-26T11:00:37.917Z,19.36
2022-10-26T11:05:56.642Z,19.46
2022-10-26T11:11:10.461Z,19.61
2022-10-26T11:16:13.794Z,19.64
2022-10-26T11:21:25.168Z,19.09
2022-10-26T11:26:32.932Z,18.79
2022-10-26T11:31:39.081Z,18.74
2022-10-26T11:36:41.046Z,18.40
2022-10-26T11:41:47.178Z,18.60
2022-10-26T11:46:51.046Z,18.60
2022-10-26T11:52:17.820Z,18.28
2022-10-26T11:57:19.294Z,19.00
2022-10-26T12:02:24.808Z,19.09
2022-10-26T12:07:29.090Z,19.18
2022-10-26T12:12:35.109Z,19.30
2022-10-26T12:17:56.741Z,19.12
2022-10-26T12:22:58.185Z,19.04
2022-10-26T12:28:00.367Z,19.31
2022-10-26T12:33:03.801Z,19.27
2022-10-26T12:38:23.748Z,19.30
2022-10-26T12:43:25.050Z,19.14
2022-10-26T12:48:45.436Z,18.99
2022-10-26T12:54:04.478Z,19.23
2022-10-26T12:59:21.205Z,19.55
2022-10-26T13:05:00.629Z,19.78
2022-10-26T13:10:06.049Z,19.01
2022-10-26T13:15:19.672Z,19.39
2022-10-26T13:20:21.118Z,19.34
2022-10-26T13:25:24.941Z,19.97
2022-10-26T13:30:44.071Z,20.20
2022-10-26T13:35:45.548Z,20.21
2022-10-26T13:40:46.997Z,20.44
2022-10-26T13:45:56.195Z,19.86
2022-10-26T13:51:00.224Z,19.47
2022-10-26T13:56:04.866Z,19.42
2022-10-26T14:01:08.989Z,20.01
2022-10-26T14:06:15.639Z,19.82
2022-10-26T14:11:19.397Z,20.24
2022-10-26T14:16:20.881Z,20.12
2022-10-26T14:21:22.764Z,20.25
2022-10-26T14:26:28.302Z,20.46
2022-10-26T14:31:31.362Z,20.21
2022-10-26T14:36:39.858Z,19.93
2022-10-26T14:41:41.323Z,19.80
2022-10-26T14:46:42.829Z,19.94
2022-10-26T14:51:44.307Z,20.23
2022-10-26T14:56:45.819Z,19.81
2022-10-26T15:01:59.859Z,19.96
2022-10-26T15:07:17.845Z,20.29
2022-10-26T15:12:35.635Z,20.07
2022-10-26T15:17:38.148Z,20.02
2022-10-26T15:22:39.608Z,20.30
2022-10-26T15:27:41.231Z,20.36
2022-10-26T15:32:42.702Z,20.36
2022-10-26T15:37:44.228Z,20.33
2022-10-26T15:42:47.481Z,20.34
2022-10-26T15:47:51.717Z,20.39
2022-10-26T15:53:01.213Z,20.59
2022-10-26T15:58:02.669Z,20.70
2022-10-26T16:03:04.171Z,20.80
2022-10-26T16:08:05.638Z,20.66
2022-10-26T16:13:12.178Z,20.60
2022-10-26T16:18:14.077Z,20.79
2022-10-26T16:23:15.556Z,20.71
2022-10-26T16:28:17.034Z,20.84
2022-10-26T16:33:18.521Z,20.69
2022-10-26T16:38:20.009Z,20.69
2022-10-26T16:43:21.470Z,20.21
2022-10-26T16:48:22.929Z,20.51
2022-10-26T16:53:24.386Z,20.48
2022-10-26T16:58:25.835Z,20.63
2022-10-26T17:03:27.302Z,20.49
2022-10-26T17:08:28.805Z,20.65
2022-10-26T17:13:30.409Z,20.64
2022-10-26T17:18:31.862Z,20.76
2022-10-26T17:23:33.311Z,20.78
2022-10-26T17:28:34.820Z,20.73
2022-10-26T17:33:37.004Z,20.50
2022-10-26T17:38:38.914Z,20.64
2022-10-26T17:43:40.712Z,20.58
2022-10-26T17:48:42.222Z,20.36
2022-10-26T17:53:45.997Z,20.02
2022-10-26T17:58:54.396Z,20.25
2022-10-26T18:03:55.894Z,20.34
2022-10-26T18:08:57.636Z,20.45
2022-10-26T18:13:59.089Z,20.37
2022-10-26T18:19:04.372Z,20.16
2022-10-26T18:24:06.884Z,20.44
2022-10-26T18:29:08.339Z,20.42
2022-10-26T18:34:10.137Z,20.39
2022-10-26T18:39:11.593Z,20.48
2022-10-26T18:44:13.069Z,20.49
2022-10-26T18:49:16.574Z,20.47
2022-10-26T18:54:18.035Z,20.60
2022-10-26T18:59:19.526Z,20.50
2022-10-26T19:04:21.037Z,20.23
2022-10-26T19:09:22.508Z,20.34
2022-10-26T19:14:23.978Z,20.16
2022-10-26T19:19:25.424Z,20.39
2022-10-26T19:24:27.036Z,20.52
2022-10-26T19:29:28.508Z,20.37
2022-10-26T19:34:29.981Z,20.35
2022-10-26T19:39:31.435Z,20.01
2022-10-26T19:44:32.903Z,20.30
2022-10-26T19:49:34.412Z,20.09
2022-10-26T19:54:35.871Z,19.92
2022-10-26T19:59:37.328Z,19.90
2022-10-26T20:04:40.175Z,19.86
2022-10-26T20:09:41.678Z,19.57
2022-10-26T20:14:43.120Z,19.99
2022-10-26T20:19:44.577Z,19.85
2022-10-26T20:24:46.042Z,20.04
2022-10-26T20:29:47.489Z,20.08
2022-10-26T20:34:49.747Z,20.11
2022-10-26T20:39:52.337Z,19.89
2022-10-26T20:45:16.222Z,19.83
2022-10-26T20:50:19.005Z,19.70
2022-10-26T20:55:55.490Z,19.61
2022-10-26T21:01:00.189Z,19.60
2022-10-26T21:06:01.841Z,19.33
2022-10-26T21:11:03.307Z,19.52
2022-10-26T21:16:05.542Z,19.29
2022-10-26T21:21:06.859Z,19.45
2022-10-26T21:26:08.427Z,19.20
2022-10-26T21:31:10.566Z,19.45
2022-10-26T21:36:12.306Z,19.52
2022-10-26T21:41:18.234Z,19.27
2022-10-26T21:46:19.954Z,19.15
2022-10-26T21:51:21.414Z,19.30
2022-10-26T21:56:22.865Z,19.39
2022-10-26T22:01:24.466Z,19.03
2022-10-26T22:06:26.085Z,19.51
2022-10-26T22:11:27.569Z,19.50
2022-10-26T22:16:30.389Z,19.67
2022-10-26T22:21:34.926Z,19.63
2022-10-26T22:26:36.483Z,19.44
2022-10-26T22:31:38.734Z,19.67
2022-10-26T22:36:40.128Z,19.75
2022-10-26T22:41:41.622Z,19.61
2022-10-26T22:46:43.078Z,19.62
2022-10-26T22:51:44.530Z,19.28
2022-10-26T22:56:45.979Z,19.61
2022-10-26T23:01:47.667Z,19.50
2022-10-26T23:06:49.206Z,19.38
2022-10-26T23:11:50.673Z,19.30
2022-10-26T23:16:52.120Z,19.48
2022-10-26T23:21:53.564Z,19.14
2022-10-26T23:26:55.013Z,19.13
2022-10-26T23:31:56.469Z,19.32
2022-10-26T23:36:57.912Z,18.43
2022-10-26T23:41:59.353Z,18.43
2022-10-26T23:47:00.828Z,18.25
2022-10-26T23:52:02.274Z,18.83
2022-10-26T23:57:03.925Z,18.61
